sensor_id;sensor_type;location;lat;lon;timestamp;P1;durP1;ratioP1;P2;durP2;ratioP2
20383;SDS011;46458;50.966;7.002;2024-02-26T00:01:50;2.73;;;1.43;;
20383;SDS011;46458;50.966;7.002;2024-02-26T00:04:19;2.20;;;1.57;;
20383;SDS011;46458;50.966;7.002;2024-02-26T00:06:48;1.37;;;1.00;;
20383;SDS011;46458;50.966;7.002;2024-02-26T00:09:19;1.30;;;1.20;;
20383;SDS011;46458;50.966;7.002;2024-02-26T00:11:48;2.37;;;1.50;;
20383;SDS011;46458;50.966;7.002;2024-02-26T00:14:17;2.07;;;1.27;;
20383;SDS011;46458;50.966;7.002;2024-02-26T00:16:45;4.40;;;2.97;;
20383;SDS011;46458;50.966;7.002;2024-02-26T00:19:20;5.60;;;3.50;;
20383;SDS011;46458;50.966;7.002;2024-02-26T00:21:49;6.33;;;4.63;;
20383;SDS011;46458;50.966;7.002;2024-02-26T00:24:19;7.93;;;4.43;;
20383;SDS011;46458;50.966;7.002;2024-02-26T00:26:50;4.60;;;2.40;;
20383;SDS011;46458;50.966;7.002;2024-02-26T00:29:20;3.30;;;1.87;;
20383;SDS011;46458;50.966;7.002;2024-02-26T00:31:48;2.13;;;1.40;;
20383;SDS011;46458;50.966;7.002;2024-02-26T00:34:20;1.97;;;1.33;;
20383;SDS011;46458;50.966;7.002;2024-02-26T00:36:49;2.93;;;1.57;;
20383;SDS011;46458;50.966;7.002;2024-02-26T00:39:18;4.13;;;2.10;;
20383;SDS011;46458;50.966;7.002;2024-02-26T00:41:47;3.07;;;1.50;;
20383;SDS011;46458;50.966;7.002;2024-02-26T00:44:19;3.50;;;1.30;;
20383;SDS011;46458;50.966;7.002;2024-02-26T00:46:48;1.60;;;1.10;;
20383;SDS011;46458;50.966;7.002;2024-02-26T00:49:20;1.80;;;0.97;;
20383;SDS011;46458;50.966;7.002;2024-02-26T00:51:48;2.50;;;1.40;;
20383;SDS011;46458;50.966;7.002;2024-02-26T00:54:17;2.43;;;1.47;;
20383;SDS011;46458;50.966;7.002;2024-02-26T00:56:46;1.67;;;1.27;;
20383;SDS011;46458;50.966;7.002;2024-02-26T00:59:18;2.17;;;1.40;;
20383;SDS011;46458;50.966;7.002;2024-02-26T01:01:47;2.10;;;1.37;;
20383;SDS011;46458;50.966;7.002;2024-02-26T01:04:16;1.77;;;1.20;;
20383;SDS011;46458;50.966;7.002;2024-02-26T01:06:47;1.77;;;1.30;;
20383;SDS011;46458;50.966;7.002;2024-02-26T01:09:18;2.67;;;1.20;;
20383;SDS011;46458;50.966;7.002;2024-02-26T01:11:47;2.10;;;1.23;;
20383;SDS011;46458;50.966;7.002;2024-02-26T01:14:19;1.80;;;1.13;;
20383;SDS011;46458;50.966;7.002;2024-02-26T01:16:48;1.13;;;0.90;;
20383;SDS011;46458;50.966;7.002;2024-02-26T01:19:17;1.00;;;0.83;;
20383;SDS011;46458;50.966;7.002;2024-02-26T01:21:49;1.33;;;0.90;;
20383;SDS011;46458;50.966;7.002;2024-02-26T01:24:17;3.53;;;1.30;;
20383;SDS011;46458;50.966;7.002;2024-02-26T01:26:48;2.03;;;1.70;;
20383;SDS011;46458;50.966;7.002;2024-02-26T01:29:19;2.47;;;1.00;;
20383;SDS011;46458;50.966;7.002;2024-02-26T01:31:48;1.40;;;1.10;;
20383;SDS011;46458;50.966;7.002;2024-02-26T01:34:17;1.43;;;1.00;;
20383;SDS011;46458;50.966;7.002;2024-02-26T01:36:49;1.47;;;0.90;;
20383;SDS011;46458;50.966;7.002;2024-02-26T01:39:18;1.67;;;1.10;;
20383;SDS011;46458;50.966;7.002;2024-02-26T01:41:47;1.07;;;0.83;;
20383;SDS011;46458;50.966;7.002;2024-02-26T01:44:19;0.70;;;0.70;;
20383;SDS011;46458;50.966;7.002;2024-02-26T01:46:49;2.23;;;0.90;;
20383;SDS011;46458;50.966;7.002;2024-02-26T01:49:18;1.07;;;0.87;;
20383;SDS011;46458;50.966;7.002;2024-02-26T01:51:50;1.07;;;0.90;;
20383;SDS011;46458;50.966;7.002;2024-02-26T01:54:19;1.30;;;0.87;;
20383;SDS011;46458;50.966;7.002;2024-02-26T01:56:50;0.97;;;0.93;;
20383;SDS011;46458;50.966;7.002;2024-02-26T01:59:19;0.87;;;0.80;;
20383;SDS011;46458;50.966;7.002;2024-02-26T02:01:50;1.60;;;0.93;;
20383;SDS011;46458;50.966;7.002;2024-02-26T02:04:23;6.63;;;1.10;;
20383;SDS011;46458;50.966;7.002;2024-02-26T02:06:54;2.23;;;1.00;;
20383;SDS011;46458;50.966;7.002;2024-02-26T02:09:28;2.00;;;1.20;;
20383;SDS011;46458;50.966;7.002;2024-02-26T02:11:57;1.77;;;1.00;;
20383;SDS011;46458;50.966;7.002;2024-02-26T02:14:27;1.90;;;1.20;;
20383;SDS011;46458;50.966;7.002;2024-02-26T02:16:59;2.03;;;1.13;;
20383;SDS011;46458;50.966;7.002;2024-02-26T02:19:27;1.40;;;1.10;;
20383;SDS011;46458;50.966;7.002;2024-02-26T02:21:59;3.10;;;0.93;;
20383;SDS011;46458;50.966;7.002;2024-02-26T02:24:28;1.70;;;1.00;;
20383;SDS011;46458;50.966;7.002;2024-02-26T02:26:57;2.93;;;1.13;;
20383;SDS011;46458;50.966;7.002;2024-02-26T02:29:36;3.77;;;1.27;;
20383;SDS011;46458;50.966;7.002;2024-02-26T02:32:05;1.57;;;1.20;;
20383;SDS011;46458;50.966;7.002;2024-02-26T02:34:34;1.90;;;1.30;;
20383;SDS011;46458;50.966;7.002;2024-02-26T02:37:09;1.53;;;1.43;;
20383;SDS011;46458;50.966;7.002;2024-02-26T02:39:38;3.00;;;1.30;;
20383;SDS011;46458;50.966;7.002;2024-02-26T02:42:10;4.27;;;1.40;;
20383;SDS011;46458;50.966;7.002;2024-02-26T02:44:38;2.17;;;1.10;;
20383;SDS011;46458;50.966;7.002;2024-02-26T02:47:10;1.83;;;0.90;;
20383;SDS011;46458;50.966;7.002;2024-02-26T02:49:39;2.07;;;1.10;;
20383;SDS011;46458;50.966;7.002;2024-02-26T02:52:12;1.43;;;1.00;;
20383;SDS011;46458;50.966;7.002;2024-02-26T02:54:41;1.40;;;1.10;;
20383;SDS011;46458;50.966;7.002;2024-02-26T02:57:12;1.83;;;1.33;;
20383;SDS011;46458;50.966;7.002;2024-02-26T02:59:41;2.67;;;1.10;;
20383;SDS011;46458;50.966;7.002;2024-02-26T03:02:10;1.33;;;1.07;;
20383;SDS011;46458;50.966;7.002;2024-02-26T03:04:38;1.90;;;1.13;;
20383;SDS011;46458;50.966;7.002;2024-02-26T03:07:10;1.67;;;1.10;;
20383;SDS011;46458;50.966;7.002;2024-02-26T03:09:40;1.40;;;0.97;;
20383;SDS011;46458;50.966;7.002;2024-02-26T03:12:09;2.27;;;1.20;;
20383;SDS011;46458;50.966;7.002;2024-02-26T03:14:38;1.37;;;1.10;;
20383;SDS011;46458;50.966;7.002;2024-02-26T03:17:07;3.53;;;1.23;;
20383;SDS011;46458;50.966;7.002;2024-02-26T03:19:36;3.43;;;1.40;;
20383;SDS011;46458;50.966;7.002;2024-02-26T03:22:10;3.53;;;1.20;;
20383;SDS011;46458;50.966;7.002;2024-02-26T03:24:39;1.00;;;0.80;;
20383;SDS011;46458;50.966;7.002;2024-02-26T03:27:08;2.23;;;1.23;;
20383;SDS011;46458;50.966;7.002;2024-02-26T03:29:37;1.93;;;1.00;;
20383;SDS011;46458;50.966;7.002;2024-02-26T03:32:06;2.00;;;1.23;;
20383;SDS011;46458;50.966;7.002;2024-02-26T03:34:35;2.60;;;0.90;;
20383;SDS011;46458;50.966;7.002;2024-02-26T03:37:04;1.17;;;0.90;;
20383;SDS011;46458;50.966;7.002;2024-02-26T03:39:40;1.03;;;0.93;;
20383;SDS011;46458;50.966;7.002;2024-02-26T03:42:09;1.20;;;0.80;;
20383;SDS011;46458;50.966;7.002;2024-02-26T03:44:37;1.17;;;0.70;;
20383;SDS011;46458;50.966;7.002;2024-02-26T03:47:06;1.17;;;0.90;;
20383;SDS011;46458;50.966;7.002;2024-02-26T03:49:35;1.17;;;0.90;;
20383;SDS011;46458;50.966;7.002;2024-02-26T03:52:05;1.73;;;1.00;;
20383;SDS011;46458;50.966;7.002;2024-02-26T03:54:33;2.07;;;1.10;;
20383;SDS011;46458;50.966;7.002;2024-02-26T03:57:07;1.20;;;1.00;;
20383;SDS011;46458;50.966;7.002;2024-02-26T03:59:36;1.37;;;0.90;;
20383;SDS011;46458;50.966;7.002;2024-02-26T04:02:05;3.20;;;1.37;;
20383;SDS011;46458;50.966;7.002;2024-02-26T04:04:35;3.23;;;2.30;;
20383;SDS011;46458;50.966;7.002;2024-02-26T04:07:06;2.87;;;2.07;;
20383;SDS011;46458;50.966;7.002;2024-02-26T04:09:36;3.27;;;2.40;;
20383;SDS011;46458;50.966;7.002;2024-02-26T04:12:08;3.47;;;1.97;;
20383;SDS011;46458;50.966;7.002;2024-02-26T04:14:40;2.00;;;1.27;;
20383;SDS011;46458;50.966;7.002;2024-02-26T04:17:09;3.77;;;1.10;;
20383;SDS011;46458;50.966;7.002;2024-02-26T04:19:41;1.97;;;1.37;;
20383;SDS011;46458;50.966;7.002;2024-02-26T04:22:10;2.07;;;1.50;;
20383;SDS011;46458;50.966;7.002;2024-02-26T04:24:39;1.30;;;1.10;;
20383;SDS011;46458;50.966;7.002;2024-02-26T04:27:10;1.57;;;1.10;;
20383;SDS011;46458;50.966;7.002;2024-02-26T04:29:39;1.30;;;1.10;;
20383;SDS011;46458;50.966;7.002;2024-02-26T04:32:09;1.40;;;1.10;;
20383;SDS011;46458;50.966;7.002;2024-02-26T04:34:38;4.50;;;1.07;;
20383;SDS011;46458;50.966;7.002;2024-02-26T04:37:07;1.07;;;0.90;;
20383;SDS011;46458;50.966;7.002;2024-02-26T04:39:36;1.40;;;1.00;;
20383;SDS011;46458;50.966;7.002;2024-02-26T04:42:05;1.57;;;1.10;;
20383;SDS011;46458;50.966;7.002;2024-02-26T04:44:36;1.33;;;0.97;;
20383;SDS011;46458;50.966;7.002;2024-02-26T04:47:05;2.03;;;1.30;;
20383;SDS011;46458;50.966;7.002;2024-02-26T04:49:34;1.67;;;1.20;;
20383;SDS011;46458;50.966;7.002;2024-02-26T04:52:03;2.30;;;1.60;;
20383;SDS011;46458;50.966;7.002;2024-02-26T04:54:35;2.20;;;1.30;;
20383;SDS011;46458;50.966;7.002;2024-02-26T04:57:07;2.77;;;1.20;;
20383;SDS011;46458;50.966;7.002;2024-02-26T04:59:44;2.10;;;1.20;;
20383;SDS011;46458;50.966;7.002;2024-02-26T05:02:13;2.77;;;1.20;;
20383;SDS011;46458;50.966;7.002;2024-02-26T05:04:45;2.00;;;1.47;;
20383;SDS011;46458;50.966;7.002;2024-02-26T05:07:13;2.13;;;1.30;;
20383;SDS011;46458;50.966;7.002;2024-02-26T05:09:46;2.30;;;1.30;;
20383;SDS011;46458;50.966;7.002;2024-02-26T05:12:15;1.47;;;1.20;;
20383;SDS011;46458;50.966;7.002;2024-02-26T05:14:48;4.70;;;1.50;;
20383;SDS011;46458;50.966;7.002;2024-02-26T05:17:17;1.90;;;1.67;;
20383;SDS011;46458;50.966;7.002;2024-02-26T05:19:46;2.43;;;1.30;;
20383;SDS011;46458;50.966;7.002;2024-02-26T05:22:14;2.43;;;1.30;;
20383;SDS011;46458;50.966;7.002;2024-02-26T05:24:43;2.07;;;1.47;;
20383;SDS011;46458;50.966;7.002;2024-02-26T05:27:15;1.57;;;1.10;;
20383;SDS011;46458;50.966;7.002;2024-02-26T05:29:47;1.73;;;1.30;;
20383;SDS011;46458;50.966;7.002;2024-02-26T05:32:17;1.60;;;1.10;;
20383;SDS011;46458;50.966;7.002;2024-02-26T05:34:46;2.13;;;1.50;;
20383;SDS011;46458;50.966;7.002;2024-02-26T05:37:17;2.93;;;1.47;;
20383;SDS011;46458;50.966;7.002;2024-02-26T05:39:46;4.23;;;1.70;;
20383;SDS011;46458;50.966;7.002;2024-02-26T05:42:17;2.67;;;1.90;;
20383;SDS011;46458;50.966;7.002;2024-02-26T05:44:49;2.63;;;1.63;;
20383;SDS011;46458;50.966;7.002;2024-02-26T05:47:18;2.37;;;1.80;;
20383;SDS011;46458;50.966;7.002;2024-02-26T05:49:46;2.93;;;1.83;;
20383;SDS011;46458;50.966;7.002;2024-02-26T05:52:15;3.70;;;2.00;;
20383;SDS011;46458;50.966;7.002;2024-02-26T05:54:44;4.63;;;1.67;;
20383;SDS011;46458;50.966;7.002;2024-02-26T05:57:13;1.90;;;1.70;;
20383;SDS011;46458;50.966;7.002;2024-02-26T05:59:55;2.87;;;1.70;;
20383;SDS011;46458;50.966;7.002;2024-02-26T06:02:27;2.50;;;1.67;;
20383;SDS011;46458;50.966;7.002;2024-02-26T06:04:55;2.00;;;1.60;;
20383;SDS011;46458;50.966;7.002;2024-02-26T06:07:24;2.73;;;1.80;;
20383;SDS011;46458;50.966;7.002;2024-02-26T06:09:54;3.30;;;1.40;;
20383;SDS011;46458;50.966;7.002;2024-02-26T06:12:25;5.47;;;1.63;;
20383;SDS011;46458;50.966;7.002;2024-02-26T06:14:58;2.40;;;1.50;;
20383;SDS011;46458;50.966;7.002;2024-02-26T06:17:30;1.90;;;1.50;;
20383;SDS011;46458;50.966;7.002;2024-02-26T06:20:00;1.83;;;1.50;;
20383;SDS011;46458;50.966;7.002;2024-02-26T06:22:29;2.27;;;1.70;;
20383;SDS011;46458;50.966;7.002;2024-02-26T06:24:58;1.70;;;1.60;;
20383;SDS011;46458;50.966;7.002;2024-02-26T06:27:27;2.30;;;1.43;;
20383;SDS011;46458;50.966;7.002;2024-02-26T06:29:58;5.20;;;1.80;;
20383;SDS011;46458;50.966;7.002;2024-02-26T06:32:30;1.83;;;1.50;;
20383;SDS011;46458;50.966;7.002;2024-02-26T06:34:59;3.43;;;1.50;;
20383;SDS011;46458;50.966;7.002;2024-02-26T06:37:32;2.03;;;1.70;;
20383;SDS011;46458;50.966;7.002;2024-02-26T06:40:04;2.73;;;1.90;;
20383;SDS011;46458;50.966;7.002;2024-02-26T06:42:34;2.67;;;1.90;;
20383;SDS011;46458;50.966;7.002;2024-02-26T06:45:06;2.97;;;1.90;;
20383;SDS011;46458;50.966;7.002;2024-02-26T06:47:38;4.13;;;2.00;;
20383;SDS011;46458;50.966;7.002;2024-02-26T06:50:08;5.57;;;3.03;;
20383;SDS011;46458;50.966;7.002;2024-02-26T06:52:40;4.50;;;2.30;;
20383;SDS011;46458;50.966;7.002;2024-02-26T06:55:08;2.57;;;2.30;;
20383;SDS011;46458;50.966;7.002;2024-02-26T06:57:43;5.07;;;2.60;;
20383;SDS011;46458;50.966;7.002;2024-02-26T07:00:15;4.67;;;2.23;;
20383;SDS011;46458;50.966;7.002;2024-02-26T07:02:44;5.47;;;2.60;;
20383;SDS011;46458;50.966;7.002;2024-02-26T07:05:13;3.43;;;2.40;;
20383;SDS011;46458;50.966;7.002;2024-02-26T07:07:43;2.83;;;2.10;;
20383;SDS011;46458;50.966;7.002;2024-02-26T07:10:12;2.37;;;1.97;;
20383;SDS011;46458;50.966;7.002;2024-02-26T07:12:41;4.40;;;2.57;;
20383;SDS011;46458;50.966;7.002;2024-02-26T07:15:10;3.40;;;2.13;;
20383;SDS011;46458;50.966;7.002;2024-02-26T07:17:41;3.03;;;2.13;;
20383;SDS011;46458;50.966;7.002;2024-02-26T07:20:12;4.07;;;2.20;;
20383;SDS011;46458;50.966;7.002;2024-02-26T07:22:43;4.17;;;2.30;;
20383;SDS011;46458;50.966;7.002;2024-02-26T07:25:09;3.77;;;2.33;;
20383;SDS011;46458;50.966;7.002;2024-02-26T07:27:38;5.00;;;2.33;;
20383;SDS011;46458;50.966;7.002;2024-02-26T07:30:08;3.27;;;2.43;;
20383;SDS011;46458;50.966;7.002;2024-02-26T07:32:38;3.47;;;1.87;;
20383;SDS011;46458;50.966;7.002;2024-02-26T07:35:09;2.40;;;1.90;;
20383;SDS011;46458;50.966;7.002;2024-02-26T07:37:42;4.27;;;2.37;;
20383;SDS011;46458;50.966;7.002;2024-02-26T07:40:11;4.27;;;2.10;;
20383;SDS011;46458;50.966;7.002;2024-02-26T07:42:41;5.53;;;2.40;;
20383;SDS011;46458;50.966;7.002;2024-02-26T07:45:13;3.57;;;2.10;;
20383;SDS011;46458;50.966;7.002;2024-02-26T07:47:45;2.50;;;2.03;;
20383;SDS011;46458;50.966;7.002;2024-02-26T07:50:19;3.60;;;1.77;;
20383;SDS011;46458;50.966;7.002;2024-02-26T07:52:48;2.80;;;1.80;;
20383;SDS011;46458;50.966;7.002;2024-02-26T07:55:21;3.07;;;1.93;;
20383;SDS011;46458;50.966;7.002;2024-02-26T07:57:50;2.67;;;2.03;;
20383;SDS011;46458;50.966;7.002;2024-02-26T08:00:19;2.60;;;1.80;;
20383;SDS011;46458;50.966;7.002;2024-02-26T08:02:48;2.97;;;1.70;;
20383;SDS011;46458;50.966;7.002;2024-02-26T08:05:20;4.47;;;2.33;;
20383;SDS011;46458;50.966;7.002;2024-02-26T08:07:48;2.30;;;1.60;;
20383;SDS011;46458;50.966;7.002;2024-02-26T08:10:17;2.60;;;1.90;;
20383;SDS011;46458;50.966;7.002;2024-02-26T08:12:46;2.50;;;1.80;;
20383;SDS011;46458;50.966;7.002;2024-02-26T08:15:15;4.37;;;2.07;;
20383;SDS011;46458;50.966;7.002;2024-02-26T08:17:46;3.40;;;1.70;;
20383;SDS011;46458;50.966;7.002;2024-02-26T08:20:20;3.00;;;2.10;;
20383;SDS011;46458;50.966;7.002;2024-02-26T08:22:49;2.50;;;1.70;;
20383;SDS011;46458;50.966;7.002;2024-02-26T08:25:20;2.30;;;1.63;;
20383;SDS011;46458;50.966;7.002;2024-02-26T08:27:49;4.10;;;2.10;;
20383;SDS011;46458;50.966;7.002;2024-02-26T08:30:18;3.57;;;1.80;;
20383;SDS011;46458;50.966;7.002;2024-02-26T08:32:47;3.13;;;1.83;;
20383;SDS011;46458;50.966;7.002;2024-02-26T08:35:21;3.17;;;2.10;;
20383;SDS011;46458;50.966;7.002;2024-02-26T08:37:50;3.17;;;2.10;;
20383;SDS011;46458;50.966;7.002;2024-02-26T08:40:18;4.30;;;2.20;;
20383;SDS011;46458;50.966;7.002;2024-02-26T08:42:47;2.57;;;1.73;;
20383;SDS011;46458;50.966;7.002;2024-02-26T08:45:16;3.70;;;2.33;;
20383;SDS011;46458;50.966;7.002;2024-02-26T08:47:46;4.23;;;2.77;;
20383;SDS011;46458;50.966;7.002;2024-02-26T08:50:15;4.33;;;2.80;;
20383;SDS011;46458;50.966;7.002;2024-02-26T08:52:46;3.80;;;2.17;;
20383;SDS011;46458;50.966;7.002;2024-02-26T08:55:16;3.70;;;2.13;;
20383;SDS011;46458;50.966;7.002;2024-02-26T08:57:45;2.87;;;2.47;;
20383;SDS011;46458;50.966;7.002;2024-02-26T09:00:14;3.83;;;2.40;;
20383;SDS011;46458;50.966;7.002;2024-02-26T09:02:45;3.00;;;2.03;;
20383;SDS011;46458;50.966;7.002;2024-02-26T09:05:20;3.03;;;1.83;;
20383;SDS011;46458;50.966;7.002;2024-02-26T09:07:52;3.20;;;1.80;;
20383;SDS011;46458;50.966;7.002;2024-02-26T09:10:22;3.63;;;2.20;;
20383;SDS011;46458;50.966;7.002;2024-02-26T09:12:51;2.10;;;1.73;;
20383;SDS011;46458;50.966;7.002;2024-02-26T09:15:20;2.60;;;2.07;;
20383;SDS011;46458;50.966;7.002;2024-02-26T09:17:52;2.20;;;2.00;;
20383;SDS011;46458;50.966;7.002;2024-02-26T09:20:21;2.37;;;2.10;;
20383;SDS011;46458;50.966;7.002;2024-02-26T09:22:52;4.23;;;2.60;;
20383;SDS011;46458;50.966;7.002;2024-02-26T09:25:23;4.20;;;2.03;;
20383;SDS011;46458;50.966;7.002;2024-02-26T09:27:53;4.77;;;2.30;;
20383;SDS011;46458;50.966;7.002;2024-02-26T09:30:21;3.40;;;2.00;;
20383;SDS011;46458;50.966;7.002;2024-02-26T09:32:50;5.23;;;2.30;;
20383;SDS011;46458;50.966;7.002;2024-02-26T09:35:20;5.37;;;2.87;;
20383;SDS011;46458;50.966;7.002;2024-02-26T09:37:51;2.30;;;1.93;;
20383;SDS011;46458;50.966;7.002;2024-02-26T09:40:20;2.67;;;2.20;;
20383;SDS011;46458;50.966;7.002;2024-02-26T09:42:49;3.20;;;2.20;;
20383;SDS011;46458;50.966;7.002;2024-02-26T09:45:25;4.40;;;2.13;;
20383;SDS011;46458;50.966;7.002;2024-02-26T09:47:56;4.90;;;2.23;;
20383;SDS011;46458;50.966;7.002;2024-02-26T09:50:25;5.10;;;2.40;;
20383;SDS011;46458;50.966;7.002;2024-02-26T09:52:58;5.10;;;2.80;;
20383;SDS011;46458;50.966;7.002;2024-02-26T09:55:28;4.50;;;2.50;;
20383;SDS011;46458;50.966;7.002;2024-02-26T09:57:56;3.70;;;2.70;;
20383;SDS011;46458;50.966;7.002;2024-02-26T10:00:26;3.50;;;2.40;;
20383;SDS011;46458;50.966;7.002;2024-02-26T10:02:59;5.83;;;2.20;;
20383;SDS011;46458;50.966;7.002;2024-02-26T10:05:33;4.70;;;2.33;;
20383;SDS011;46458;50.966;7.002;2024-02-26T10:08:06;3.37;;;2.47;;
20383;SDS011;46458;50.966;7.002;2024-02-26T10:10:37;3.70;;;2.57;;
20383;SDS011;46458;50.966;7.002;2024-02-26T10:13:06;4.50;;;2.43;;
20383;SDS011;46458;50.966;7.002;2024-02-26T10:15:37;4.07;;;2.70;;
20383;SDS011;46458;50.966;7.002;2024-02-26T10:18:06;6.60;;;3.20;;
20383;SDS011;46458;50.966;7.002;2024-02-26T10:20:35;5.80;;;2.80;;
20383;SDS011;46458;50.966;7.002;2024-02-26T10:23:09;4.07;;;2.43;;
20383;SDS011;46458;50.966;7.002;2024-02-26T10:25:40;3.80;;;2.20;;
20383;SDS011;46458;50.966;7.002;2024-02-26T10:28:22;3.63;;;2.50;;
20383;SDS011;46458;50.966;7.002;2024-02-26T10:30:51;3.97;;;2.93;;
20383;SDS011;46458;50.966;7.002;2024-02-26T10:33:20;6.27;;;2.90;;
20383;SDS011;46458;50.966;7.002;2024-02-26T10:35:49;5.60;;;3.10;;
20383;SDS011;46458;50.966;7.002;2024-02-26T10:38:21;9.63;;;3.53;;
20383;SDS011;46458;50.966;7.002;2024-02-26T10:40:51;5.23;;;2.87;;
20383;SDS011;46458;50.966;7.002;2024-02-26T10:43:20;6.30;;;3.10;;
20383;SDS011;46458;50.966;7.002;2024-02-26T10:45:48;5.67;;;3.17;;
20383;SDS011;46458;50.966;7.002;2024-02-26T10:48:20;4.63;;;3.23;;
20383;SDS011;46458;50.966;7.002;2024-02-26T10:50:51;6.93;;;3.00;;
20383;SDS011;46458;50.966;7.002;2024-02-26T10:53:28;4.80;;;2.77;;
20383;SDS011;46458;50.966;7.002;2024-02-26T10:55:58;4.43;;;2.90;;
20383;SDS011;46458;50.966;7.002;2024-02-26T10:58:31;4.40;;;3.20;;
20383;SDS011;46458;50.966;7.002;2024-02-26T11:01:01;5.53;;;3.20;;
20383;SDS011;46458;50.966;7.002;2024-02-26T11:03:31;5.70;;;2.60;;
20383;SDS011;46458;50.966;7.002;2024-02-26T11:06:04;3.57;;;2.60;;
20383;SDS011;46458;50.966;7.002;2024-02-26T11:08:36;4.93;;;3.03;;
20383;SDS011;46458;50.966;7.002;2024-02-26T11:11:06;6.40;;;3.10;;
20383;SDS011;46458;50.966;7.002;2024-02-26T11:13:38;4.67;;;3.20;;
20383;SDS011;46458;50.966;7.002;2024-02-26T11:16:10;5.10;;;2.60;;
20383;SDS011;46458;50.966;7.002;2024-02-26T11:18:38;7.53;;;3.40;;
20383;SDS011;46458;50.966;7.002;2024-02-26T11:21:10;4.83;;;3.03;;
20383;SDS011;46458;50.966;7.002;2024-02-26T11:23:42;4.03;;;2.97;;
20383;SDS011;46458;50.966;7.002;2024-02-26T11:26:11;4.93;;;2.90;;
20383;SDS011;46458;50.966;7.002;2024-02-26T11:28:42;5.03;;;3.23;;
20383;SDS011;46458;50.966;7.002;2024-02-26T11:31:12;3.27;;;2.43;;
20383;SDS011;46458;50.966;7.002;2024-02-26T11:33:43;5.53;;;2.97;;
20383;SDS011;46458;50.966;7.002;2024-02-26T11:36:12;8.47;;;3.37;;
20383;SDS011;46458;50.966;7.002;2024-02-26T11:38:44;4.20;;;3.37;;
20383;SDS011;46458;50.966;7.002;2024-02-26T11:41:17;4.30;;;2.70;;
20383;SDS011;46458;50.966;7.002;2024-02-26T11:43:49;4.73;;;3.10;;
20383;SDS011;46458;50.966;7.002;2024-02-26T11:46:25;10.37;;;3.70;;
20383;SDS011;46458;50.966;7.002;2024-02-26T11:48:58;4.87;;;3.13;;
20383;SDS011;46458;50.966;7.002;2024-02-26T11:51:34;5.53;;;3.43;;
20383;SDS011;46458;50.966;7.002;2024-02-26T11:54:06;4.63;;;3.43;;
20383;SDS011;46458;50.966;7.002;2024-02-26T11:56:35;6.57;;;3.77;;
20383;SDS011;46458;50.966;7.002;2024-02-26T11:59:11;4.37;;;3.73;;
20383;SDS011;46458;50.966;7.002;2024-02-26T12:02:03;7.00;;;3.93;;
20383;SDS011;46458;50.966;7.002;2024-02-26T12:04:34;4.93;;;3.67;;
20383;SDS011;46458;50.966;7.002;2024-02-26T12:07:05;8.17;;;3.00;;
20383;SDS011;46458;50.966;7.002;2024-02-26T12:09:37;5.30;;;3.70;;
20383;SDS011;46458;50.966;7.002;2024-02-26T12:12:07;7.17;;;3.90;;
20383;SDS011;46458;50.966;7.002;2024-02-26T12:14:38;4.10;;;3.27;;
20383;SDS011;46458;50.966;7.002;2024-02-26T12:17:19;4.53;;;2.97;;
20383;SDS011;46458;50.966;7.002;2024-02-26T12:19:45;5.00;;;3.17;;
20383;SDS011;46458;50.966;7.002;2024-02-26T12:22:18;4.33;;;3.17;;
20383;SDS011;46458;50.966;7.002;2024-02-26T12:24:54;4.10;;;2.90;;
20383;SDS011;46458;50.966;7.002;2024-02-26T12:27:28;5.90;;;3.60;;
20383;SDS011;46458;50.966;7.002;2024-02-26T12:29:58;3.57;;;3.27;;
20383;SDS011;46458;50.966;7.002;2024-02-26T12:32:28;4.57;;;3.20;;
20383;SDS011;46458;50.966;7.002;2024-02-26T12:35:02;5.17;;;3.37;;
20383;SDS011;46458;50.966;7.002;2024-02-26T12:37:33;3.60;;;2.90;;
20383;SDS011;46458;50.966;7.002;2024-02-26T12:40:10;5.20;;;3.30;;
20383;SDS011;46458;50.966;7.002;2024-02-26T12:42:40;5.50;;;2.90;;
20383;SDS011;46458;50.966;7.002;2024-02-26T12:45:09;4.43;;;2.97;;
20383;SDS011;46458;50.966;7.002;2024-02-26T12:47:41;4.20;;;3.10;;
20383;SDS011;46458;50.966;7.002;2024-02-26T12:50:11;4.03;;;2.73;;
20383;SDS011;46458;50.966;7.002;2024-02-26T12:52:42;3.53;;;2.70;;
20383;SDS011;46458;50.966;7.002;2024-02-26T12:55:16;4.03;;;2.37;;
20383;SDS011;46458;50.966;7.002;2024-02-26T12:57:47;3.97;;;2.87;;
20383;SDS011;46458;50.966;7.002;2024-02-26T13:00:19;4.27;;;2.77;;
20383;SDS011;46458;50.966;7.002;2024-02-26T13:02:49;3.53;;;2.83;;
20383;SDS011;46458;50.966;7.002;2024-02-26T13:05:20;6.10;;;3.50;;
20383;SDS011;46458;50.966;7.002;2024-02-26T13:07:50;3.57;;;3.10;;
20383;SDS011;46458;50.966;7.002;2024-02-26T13:10:22;3.93;;;2.77;;
20383;SDS011;46458;50.966;7.002;2024-02-26T13:12:51;4.87;;;2.93;;
20383;SDS011;46458;50.966;7.002;2024-02-26T13:15:20;4.17;;;2.63;;
20383;SDS011;46458;50.966;7.002;2024-02-26T13:17:50;3.33;;;2.70;;
20383;SDS011;46458;50.966;7.002;2024-02-26T13:20:25;3.67;;;2.63;;
20383;SDS011;46458;50.966;7.002;2024-02-26T13:23:01;3.47;;;2.73;;
20383;SDS011;46458;50.966;7.002;2024-02-26T13:25:33;7.37;;;2.90;;
20383;SDS011;46458;50.966;7.002;2024-02-26T13:28:06;6.30;;;3.43;;
20383;SDS011;46458;50.966;7.002;2024-02-26T13:30:36;3.43;;;2.80;;
20383;SDS011;46458;50.966;7.002;2024-02-26T13:33:08;4.93;;;2.83;;
20383;SDS011;46458;50.966;7.002;2024-02-26T13:35:38;4.30;;;3.10;;
20383;SDS011;46458;50.966;7.002;2024-02-26T13:38:07;6.23;;;3.23;;
20383;SDS011;46458;50.966;7.002;2024-02-26T13:40:40;4.80;;;3.37;;
20383;SDS011;46458;50.966;7.002;2024-02-26T13:43:09;5.53;;;3.20;;
20383;SDS011;46458;50.966;7.002;2024-02-26T13:45:40;5.13;;;3.60;;
20383;SDS011;46458;50.966;7.002;2024-02-26T13:48:10;4.93;;;3.43;;
20383;SDS011;46458;50.966;7.002;2024-02-26T13:50:39;5.63;;;3.33;;
20383;SDS011;46458;50.966;7.002;2024-02-26T13:53:11;7.83;;;3.83;;
20383;SDS011;46458;50.966;7.002;2024-02-26T13:55:44;5.53;;;3.57;;
20383;SDS011;46458;50.966;7.002;2024-02-26T13:58:12;5.33;;;3.50;;
20383;SDS011;46458;50.966;7.002;2024-02-26T14:00:45;8.20;;;3.40;;
20383;SDS011;46458;50.966;7.002;2024-02-26T14:03:14;3.97;;;3.33;;
20383;SDS011;46458;50.966;7.002;2024-02-26T14:05:44;6.47;;;3.70;;
20383;SDS011;46458;50.966;7.002;2024-02-26T14:08:13;6.13;;;3.37;;
20383;SDS011;46458;50.966;7.002;2024-02-26T14:10:45;5.93;;;4.07;;
20383;SDS011;46458;50.966;7.002;2024-02-26T14:13:13;8.53;;;3.70;;
20383;SDS011;46458;50.966;7.002;2024-02-26T14:15:45;6.87;;;4.00;;
20383;SDS011;46458;50.966;7.002;2024-02-26T14:18:14;5.27;;;3.80;;
20383;SDS011;46458;50.966;7.002;2024-02-26T14:20:50;5.00;;;3.87;;
20383;SDS011;46458;50.966;7.002;2024-02-26T14:23:19;6.00;;;4.13;;
20383;SDS011;46458;50.966;7.002;2024-02-26T14:25:51;5.10;;;3.63;;
20383;SDS011;46458;50.966;7.002;2024-02-26T14:28:22;7.60;;;4.30;;
20383;SDS011;46458;50.966;7.002;2024-02-26T14:30:53;6.00;;;4.10;;
20383;SDS011;46458;50.966;7.002;2024-02-26T14:33:22;6.00;;;4.40;;
20383;SDS011;46458;50.966;7.002;2024-02-26T14:35:57;5.43;;;3.93;;
20383;SDS011;46458;50.966;7.002;2024-02-26T14:38:28;5.30;;;4.07;;
20383;SDS011;46458;50.966;7.002;2024-02-26T14:41:00;5.83;;;4.10;;
20383;SDS011;46458;50.966;7.002;2024-02-26T14:43:29;4.87;;;4.20;;
20383;SDS011;46458;50.966;7.002;2024-02-26T14:45:59;6.43;;;4.83;;
20383;SDS011;46458;50.966;7.002;2024-02-26T14:48:27;7.60;;;4.60;;
20383;SDS011;46458;50.966;7.002;2024-02-26T14:50:57;7.50;;;5.53;;
20383;SDS011;46458;50.966;7.002;2024-02-26T14:53:26;9.03;;;5.23;;
20383;SDS011;46458;50.966;7.002;2024-02-26T14:55:55;8.13;;;5.80;;
20383;SDS011;46458;50.966;7.002;2024-02-26T14:58:27;7.77;;;5.47;;
20383;SDS011;46458;50.966;7.002;2024-02-26T15:00:59;8.60;;;5.70;;
20383;SDS011;46458;50.966;7.002;2024-02-26T15:03:33;7.77;;;5.70;;
20383;SDS011;46458;50.966;7.002;2024-02-26T15:06:02;6.57;;;5.20;;
20383;SDS011;46458;50.966;7.002;2024-02-26T15:08:33;8.23;;;6.37;;